aviador You're here:

CYRQ Decoded Metar

TROIS RIVIERE in CANADA
Report Time2017-08-18 14:00:00
UTC Time2017-08-18 14:17:43
Flight Rules vfr VFR
Wind060° at 09 kt
W.Decomp.*RWY 05: 8.1 kt HW 3.9 kt RCW
W.Rank060° ranks 7
Current wind is above 060° avg. (8.4)
Visibility9999 m
Phenomena:N/A
Clouds:Overcast 065 Hf
Expected CloudBase > 800 ft AGL from Temp-Dew spread
Ceiling6,500 ft
Temp16°C (ISA +1)
Dew Point14°C (88% RH)
AAT14.0°C
QNH1010 hPa
Density Alt679 ft
Elevation198 ft
Report Wrong Elevation
Raw Report
METAR CYRQ 181400Z AUTO 06009KT 9SM OVC065 16/14 A2984 RMK SLP108
DENSITY ALT 300FT=

Extra information for CYRQ:More info

Metar Taf Metar & Taf Last 4 Metars F.Rules Stats Wind Profile Meteogram Temp Stats Airport Information Weather charts Add Link Nearby VenuesMetar ALERT Operation Metar Decoded Social comments